Portada
METAR-TAF:

METAR-TAF

Aeroports :

Aeroport d'Ouagadougou

Ouagadougou, Burkina Faso

latitud: 12-21N, longitud: 001-31W, altitud: 316 m

Observació

L'informe es va fer fa 1 hora i 51 minuts, a les 14:00 UTC
Vent 7 kt del Est amb ràfegues de 17 kt, variant entre Nord/Nord-Est i Sud/Sud-Est
Temperatura 37°C
Humitat 15%
Pressió 1011 hPa
Visibilitat 10 km o més
sense núvols per sota de 1500 mi sense presència de cumulonimbus.

METAR: DFFD 021400Z 09007G17KT 020V150 CAVOK 37/06 Q1011 NOSIG

Hora: 15:51 (15:51 UTC)

Pronòstic

L'informe es va fer fa 4 hores i 51 minuts, a les 11:00 UTC
Pronòstic vàlid del 02 a les 12 UTC al 03 a les 18 UTC
Vent 8 kt del Est
Visibilitat: 8000 m
Temporalment
l' 02 a les 17 UTC al 02 a les 20 UTC
Visibilitat: 4000 m
calitja
Temporalment
l' 03 a les 06 UTC al 03 a les 10 UTC
Visibilitat: 4000 m
calitja

TAF: DFFD 021100Z 0212/0318 08008KT 8000 NSC TEMPO 0217/0220 4000 HZ TEMPO 0306/0310 4000 HZ

Observacions i pronòstics meteorològics de més de 4000 aeroports (METAR i TAF).

Les estacions disponibles són els punts grocs i vermells al mapa.

Posi el ratolí al punt desitjat per veure el nom de l'estació.

Feu clic per veure les observacions i els pronòstics meteorològics.

Per canviar el mapa: feu clic els botons verds amb una creu de color negre per apropar; al botó verd amb un guió per allunyar la imatge; o en les fletxes verdes per a mapes adjacents.


METAR-TAF: